createdAt,value
2018-05-10T00:00:38.088Z,11.28
2018-05-10T00:06:33.128Z,11.33
2018-05-10T00:12:28.090Z,22.31
2018-05-10T00:18:23.105Z,91.09
2018-05-10T00:24:18.087Z,153.87
2018-05-10T00:30:13.113Z,39.97
2018-05-10T00:36:08.114Z,41.24
2018-05-10T00:42:03.106Z,101.64
2018-05-10T00:47:58.096Z,98.29
2018-05-10T00:53:53.097Z,75.63
2018-05-10T00:59:48.100Z,107.74
2018-05-10T01:05:43.126Z,100.15
2018-05-10T01:11:38.157Z,72.3
2018-05-10T01:17:33.131Z,56.95
2018-05-10T01:23:28.103Z,72.58
2018-05-10T01:29:23.147Z,80.55
2018-05-10T01:35:18.181Z,87.94
2018-05-10T01:41:13.178Z,93.09
2018-05-10T01:47:08.148Z,89.13
2018-05-10T01:53:03.105Z,61.45
2018-05-10T01:58:58.107Z,34.56
2018-05-10T02:04:53.158Z,42.14
2018-05-10T02:10:48.136Z,45.3
2018-05-10T02:16:43.100Z,61.16
2018-05-10T02:22:38.169Z,43.17
2018-05-10T02:28:33.135Z,57.75
2018-05-10T02:34:28.133Z,80.42
2018-05-10T02:40:23.136Z,91.83
2018-05-10T02:46:18.135Z,67.94
2018-05-10T02:52:13.160Z,65.84
2018-05-10T02:58:08.148Z,61.03
2018-05-10T03:04:03.133Z,45.86
2018-05-10T03:09:58.179Z,62.3
2018-05-10T03:15:53.187Z,47.23
2018-05-10T03:21:48.128Z,49.43
2018-05-10T03:27:43.162Z,48.52
2018-05-10T03:33:38.173Z,31.55
2018-05-10T03:39:33.136Z,27.56
2018-05-10T03:45:28.190Z,35.38
2018-05-10T03:51:23.128Z,28.15
2018-05-10T03:57:18.204Z,49.64
2018-05-10T04:03:13.141Z,80.9
2018-05-10T04:09:08.194Z,60
2018-05-10T04:15:03.229Z,56.52
2018-05-10T04:20:58.301Z,45.94
2018-05-10T04:26:53.266Z,23.93
2018-05-10T04:32:48.171Z,20.7
2018-05-10T04:38:43.224Z,19.21
2018-05-10T04:44:38.156Z,20.33
2018-05-10T04:50:33.173Z,23.79
2018-05-10T04:56:28.138Z,24.96
2018-05-10T05:02:23.191Z,22.76
2018-05-10T05:08:18.155Z,25.65
2018-05-10T05:14:13.192Z,28.87
2018-05-10T05:20:08.166Z,23.73
2018-05-10T05:26:03.229Z,29.55
2018-05-10T05:31:58.185Z,25.67
2018-05-10T05:37:53.258Z,30.5
2018-05-10T05:43:48.202Z,32.49
2018-05-10T05:49:43.172Z,30.71
2018-05-10T05:55:38.174Z,30.02
2018-05-10T06:01:33.194Z,29.17
2018-05-10T06:07:28.192Z,25.79
2018-05-10T06:13:23.259Z,29.13
2018-05-10T06:19:18.234Z,31.22
2018-05-10T06:25:13.249Z,23.68
2018-05-10T06:31:08.211Z,27.63
2018-05-10T06:37:03.180Z,33.47
2018-05-10T06:42:58.205Z,32.14
2018-05-10T06:48:53.211Z,38.95
2018-05-10T06:54:48.216Z,35.74
2018-05-10T07:00:43.235Z,36.26
2018-05-10T07:06:38.201Z,34.8
2018-05-10T07:12:33.281Z,31.15
2018-05-10T07:18:28.225Z,36.22
2018-05-10T07:24:23.206Z,35.88
2018-05-10T07:30:18.287Z,36.14
2018-05-10T07:36:13.272Z,36.13
2018-05-10T07:42:08.235Z,34.73
2018-05-10T07:48:03.214Z,37.57
2018-05-10T07:53:58.214Z,34.21
2018-05-10T07:59:53.232Z,39.02
2018-05-10T08:05:48.198Z,35.41
2018-05-10T08:11:43.224Z,31.25
2018-05-10T08:17:38.279Z,32.49
2018-05-10T08:23:33.194Z,27.48
2018-05-10T08:29:28.215Z,27.72
2018-05-10T08:35:23.258Z,29.53
2018-05-10T08:41:18.210Z,23.16
2018-05-10T08:47:13.245Z,27.09
2018-05-10T08:53:08.183Z,25.96
2018-05-10T08:59:03.314Z,26.39
2018-05-10T09:04:58.226Z,25.45
2018-05-10T09:10:53.240Z,25.59
2018-05-10T09:16:48.884Z,24.12
2018-05-10T09:22:43.244Z,25.65
2018-05-10T09:28:38.210Z,21.96
2018-05-10T09:34:33.217Z,24.5
2018-05-10T09:40:28.267Z,23.03
2018-05-10T09:46:23.219Z,21.22
2018-05-10T09:52:18.224Z,15.05
2018-05-10T09:58:13.230Z,17.3
2018-05-10T10:04:08.233Z,14.37
2018-05-10T10:10:03.254Z,13.17
2018-05-10T10:15:58.271Z,12.9
2018-05-10T10:21:53.271Z,11.13
2018-05-10T10:27:48.229Z,12.56
2018-05-10T10:33:43.321Z,12.25
2018-05-10T10:39:38.240Z,10.73
2018-05-10T10:45:33.350Z,15.1
2018-05-10T10:51:28.252Z,11.32
2018-05-10T10:57:23.239Z,12.52
2018-05-10T11:03:18.340Z,10.95
2018-05-10T11:09:13.283Z,12.97
2018-05-10T11:15:08.302Z,13.52
2018-05-10T11:21:03.299Z,11.43
2018-05-10T11:26:58.266Z,10.8
2018-05-10T11:32:53.368Z,10.62
2018-05-10T11:38:48.302Z,12.17
2018-05-10T11:44:43.327Z,11.33
2018-05-10T11:50:38.305Z,9.23
2018-05-10T11:56:33.267Z,8.44
2018-05-10T12:02:28.310Z,9.56
2018-05-10T12:08:23.321Z,11.48
2018-05-10T12:14:18.286Z,10.19
2018-05-10T12:20:13.264Z,6.71
2018-05-10T12:26:08.302Z,8.4
2018-05-10T12:32:03.290Z,6.68
2018-05-10T12:37:58.343Z,7.19
2018-05-10T12:43:53.270Z,7.34
2018-05-10T12:49:48.296Z,7.52
2018-05-10T12:55:43.296Z,7.71
2018-05-10T13:01:38.306Z,6.25
2018-05-10T13:07:33.309Z,7.25
2018-05-10T13:13:28.328Z,6.21
2018-05-10T13:19:23.330Z,6.9
2018-05-10T13:25:18.337Z,7.49
2018-05-10T13:31:13.321Z,7.64
2018-05-10T13:37:08.315Z,8.12
2018-05-10T13:43:03.297Z,7.04
2018-05-10T13:48:58.295Z,7.89
2018-05-10T13:54:53.329Z,6.48
2018-05-10T14:00:48.360Z,8.98
2018-05-10T14:06:43.329Z,4.83
2018-05-10T14:12:38.351Z,5.44
2018-05-10T14:18:33.405Z,6.66
2018-05-10T14:24:28.377Z,7.21
2018-05-10T14:30:23.400Z,5.22
2018-05-10T14:36:18.323Z,7.85
2018-05-10T14:42:13.383Z,8.49
2018-05-10T14:48:08.473Z,7.18
2018-05-10T14:54:03.330Z,10.78
2018-05-10T14:59:58.345Z,7.54
2018-05-10T15:05:53.393Z,6.62
2018-05-10T15:11:48.342Z,7.27
2018-05-10T15:17:43.330Z,7.9
2018-05-10T15:23:38.358Z,8.39
2018-05-10T15:29:33.403Z,7.68
2018-05-10T15:35:28.359Z,5.83
2018-05-10T15:41:23.370Z,8.74
2018-05-10T15:47:18.350Z,5.8
2018-05-10T15:53:13.443Z,8.4
2018-05-10T15:59:08.383Z,5.85
2018-05-10T16:05:03.400Z,6.43
2018-05-10T16:10:58.399Z,6.58
2018-05-10T16:16:53.401Z,6.14
2018-05-10T16:22:48.380Z,4.56
2018-05-10T16:28:43.372Z,7.1
2018-05-10T16:34:38.378Z,6.47
2018-05-10T16:40:33.380Z,5.12
2018-05-10T16:46:28.384Z,5.97
2018-05-10T16:52:23.404Z,5.13
2018-05-10T16:58:18.370Z,6.22
2018-05-10T17:04:13.375Z,5.77
2018-05-10T17:10:08.370Z,7.26
2018-05-10T17:16:03.453Z,7.91
2018-05-10T17:21:58.398Z,9.41
2018-05-10T17:27:53.416Z,6.43
2018-05-10T17:33:48.391Z,5.03
2018-05-10T17:39:43.443Z,8.53
2018-05-10T17:45:38.375Z,7.78
2018-05-10T17:51:33.422Z,6.28
2018-05-10T17:57:28.395Z,6.71
2018-05-10T18:03:23.386Z,6.1
2018-05-10T18:09:18.396Z,7.49
2018-05-10T18:15:13.375Z,11.12
2018-05-10T18:21:08.426Z,22.27
2018-05-10T18:27:03.456Z,12.42
2018-05-10T18:32:58.451Z,13.19
2018-05-10T18:38:53.398Z,16.43
2018-05-10T18:44:48.405Z,17.93
2018-05-10T18:50:43.421Z,9.34
2018-05-10T18:56:38.435Z,8.61
2018-05-10T19:02:33.437Z,10.88
2018-05-10T19:08:28.411Z,10.91
2018-05-10T19:14:23.472Z,8.23
2018-05-10T19:20:18.458Z,7.18
2018-05-10T19:26:13.417Z,7.16
2018-05-10T19:32:08.445Z,9.82
2018-05-10T19:38:03.418Z,9.44
2018-05-10T19:43:58.419Z,9.77
2018-05-10T19:49:53.435Z,15.03
2018-05-10T19:55:48.475Z,9.26
2018-05-10T20:01:43.441Z,8.8
2018-05-10T20:07:38.486Z,7.73
2018-05-10T20:13:33.464Z,6.82
2018-05-10T20:19:28.445Z,10.33
2018-05-10T20:25:23.553Z,10.37
2018-05-10T20:31:18.409Z,8.71
2018-05-10T20:37:13.439Z,6.55
2018-05-10T20:43:08.515Z,9.54
2018-05-10T20:49:03.427Z,8
2018-05-10T20:54:58.464Z,13.47
2018-05-10T21:00:53.434Z,11.92
2018-05-10T21:06:48.505Z,12.93
2018-05-10T21:12:43.441Z,11.89
2018-05-10T21:18:38.435Z,11.61
2018-05-10T21:24:33.439Z,10.44
2018-05-10T21:30:28.418Z,11.63
2018-05-10T21:36:23.460Z,9.04
2018-05-10T21:42:18.457Z,8.4
2018-05-10T21:48:13.450Z,12.13
2018-05-10T21:54:08.499Z,9.29
2018-05-10T22:00:03.753Z,9.18
2018-05-10T22:05:58.457Z,10.55
2018-05-10T22:11:53.493Z,12.37
2018-05-10T22:17:48.445Z,14.13
2018-05-10T22:23:43.451Z,9.19
2018-05-10T22:29:38.462Z,10.63
2018-05-10T22:35:33.453Z,11.03
2018-05-10T22:41:28.501Z,14.1
2018-05-10T22:47:23.483Z,10.76
2018-05-10T22:53:18.479Z,11.81
2018-05-10T22:59:13.481Z,10.95
2018-05-10T23:05:08.437Z,12.75
2018-05-10T23:11:03.488Z,17.35
2018-05-10T23:16:58.495Z,9.63
2018-05-10T23:22:53.430Z,11.18
2018-05-10T23:28:48.449Z,12.14
2018-05-10T23:34:43.472Z,11.66
2018-05-10T23:40:38.477Z,13.31
2018-05-10T23:46:33.489Z,12.3
2018-05-10T23:52:28.467Z,11.67
2018-05-10T23:58:23.473Z,14.46
